Terminal Aerodrome Forecast
Issued by NWS Tulsa, OK

Home | Current Version | Previous Version | Text Only | Print | Product List | Glossary On
Versions: 1 2 3 4 5 6 7 8 9 10 11 12 13 14 15 16
000
FTUS44 KTSA 301426 AAA
TAFTUL
TAF AMD
KTUL 301426Z 3014/3112 VRB04KT P6SM VCTS SCT060CB BKN250
      TEMPO 3015/3018 4SM -TSRA BR BKN050CB
     FM301800 14007KT P6SM VCTS SCT050CB BKN250
     FM310100 15005KT P6SM BKN250 PROB30 3106/3112 5SM -TSRA
      BKN040CB=

USA.gov is the U.S. government's official web portal to all federal, state and local government web resources and services.